sensor_id;sensor_type;location;lat;lon;timestamp;P1;durP1;ratioP1;P2;durP2;ratioP2
29380;SDS011;16364;52.490;13.326;2023-03-12T00:00:49;2.27;;;1.80;;
29380;SDS011;16364;52.490;13.326;2023-03-12T00:03:14;2.50;;;1.50;;
29380;SDS011;16364;52.490;13.326;2023-03-12T00:05:40;3.33;;;2.03;;
29380;SDS011;16364;52.490;13.326;2023-03-12T00:08:05;3.47;;;1.53;;
29380;SDS011;16364;52.490;13.326;2023-03-12T00:10:31;3.67;;;2.13;;
29380;SDS011;16364;52.490;13.326;2023-03-12T00:12:56;1.67;;;1.50;;
29380;SDS011;16364;52.490;13.326;2023-03-12T00:15:22;3.03;;;1.93;;
29380;SDS011;16364;52.490;13.326;2023-03-12T00:17:47;4.20;;;1.40;;
29380;SDS011;16364;52.490;13.326;2023-03-12T00:20:13;6.83;;;1.60;;
29380;SDS011;16364;52.490;13.326;2023-03-12T00:22:40;8.33;;;2.10;;
29380;SDS011;16364;52.490;13.326;2023-03-12T00:25:06;1.60;;;1.20;;
29380;SDS011;16364;52.490;13.326;2023-03-12T00:27:35;2.73;;;1.53;;
29380;SDS011;16364;52.490;13.326;2023-03-12T00:30:00;2.90;;;1.70;;
29380;SDS011;16364;52.490;13.326;2023-03-12T00:32:25;2.13;;;1.40;;
29380;SDS011;16364;52.490;13.326;2023-03-12T00:34:51;3.63;;;1.30;;
29380;SDS011;16364;52.490;13.326;2023-03-12T00:37:17;1.57;;;1.40;;
29380;SDS011;16364;52.490;13.326;2023-03-12T00:39:42;4.90;;;1.27;;
29380;SDS011;16364;52.490;13.326;2023-03-12T00:42:07;2.80;;;1.60;;
29380;SDS011;16364;52.490;13.326;2023-03-12T00:44:33;2.87;;;1.97;;
29380;SDS011;16364;52.490;13.326;2023-03-12T00:46:58;6.90;;;1.47;;
29380;SDS011;16364;52.490;13.326;2023-03-12T00:49:24;1.97;;;1.40;;
29380;SDS011;16364;52.490;13.326;2023-03-12T00:51:49;2.30;;;1.43;;
29380;SDS011;16364;52.490;13.326;2023-03-12T00:54:14;1.80;;;1.40;;
29380;SDS011;16364;52.490;13.326;2023-03-12T00:56:39;3.30;;;1.60;;
29380;SDS011;16364;52.490;13.326;2023-03-12T00:59:05;2.10;;;1.43;;
29380;SDS011;16364;52.490;13.326;2023-03-12T01:01:30;3.63;;;1.60;;
29380;SDS011;16364;52.490;13.326;2023-03-12T01:03:55;1.93;;;1.57;;
29380;SDS011;16364;52.490;13.326;2023-03-12T01:06:22;3.00;;;1.30;;
29380;SDS011;16364;52.490;13.326;2023-03-12T01:08:48;10.10;;;2.07;;
29380;SDS011;16364;52.490;13.326;2023-03-12T01:11:14;4.00;;;1.43;;
29380;SDS011;16364;52.490;13.326;2023-03-12T01:13:40;2.20;;;1.60;;
29380;SDS011;16364;52.490;13.326;2023-03-12T01:16:05;4.10;;;1.70;;
29380;SDS011;16364;52.490;13.326;2023-03-12T01:18:30;4.40;;;1.60;;
29380;SDS011;16364;52.490;13.326;2023-03-12T01:20:56;3.00;;;1.30;;
29380;SDS011;16364;52.490;13.326;2023-03-12T01:23:21;1.67;;;1.43;;
29380;SDS011;16364;52.490;13.326;2023-03-12T01:25:46;1.70;;;1.40;;
29380;SDS011;16364;52.490;13.326;2023-03-12T01:28:14;3.80;;;1.40;;
29380;SDS011;16364;52.490;13.326;2023-03-12T01:30:39;2.73;;;1.30;;
29380;SDS011;16364;52.490;13.326;2023-03-12T01:33:06;1.50;;;1.40;;
29380;SDS011;16364;52.490;13.326;2023-03-12T01:35:34;1.90;;;1.80;;
29380;SDS011;16364;52.490;13.326;2023-03-12T01:37:59;2.70;;;1.20;;
29380;SDS011;16364;52.490;13.326;2023-03-12T01:40:25;4.47;;;1.83;;
29380;SDS011;16364;52.490;13.326;2023-03-12T01:42:56;1.90;;;1.40;;
29380;SDS011;16364;52.490;13.326;2023-03-12T01:48:05;3.53;;;1.50;;
29380;SDS011;16364;52.490;13.326;2023-03-12T01:50:30;5.27;;;1.63;;
29380;SDS011;16364;52.490;13.326;2023-03-12T01:52:56;2.50;;;1.50;;
29380;SDS011;16364;52.490;13.326;2023-03-12T01:55:23;2.97;;;1.30;;
29380;SDS011;16364;52.490;13.326;2023-03-12T01:57:49;1.50;;;1.40;;
29380;SDS011;16364;52.490;13.326;2023-03-12T02:00:17;4.57;;;1.70;;
29380;SDS011;16364;52.490;13.326;2023-03-12T02:02:44;2.33;;;1.20;;
29380;SDS011;16364;52.490;13.326;2023-03-12T02:05:12;1.90;;;1.60;;
29380;SDS011;16364;52.490;13.326;2023-03-12T02:07:39;2.60;;;1.53;;
29380;SDS011;16364;52.490;13.326;2023-03-12T02:10:04;3.70;;;2.00;;
29380;SDS011;16364;52.490;13.326;2023-03-12T02:12:30;3.57;;;1.50;;
29380;SDS011;16364;52.490;13.326;2023-03-12T02:14:55;1.50;;;1.40;;
29380;SDS011;16364;52.490;13.326;2023-03-12T02:17:20;4.50;;;2.20;;
29380;SDS011;16364;52.490;13.326;2023-03-12T02:22:14;3.00;;;1.57;;
29380;SDS011;16364;52.490;13.326;2023-03-12T02:24:43;1.47;;;1.37;;
29380;SDS011;16364;52.490;13.326;2023-03-12T02:27:10;1.60;;;1.50;;
29380;SDS011;16364;52.490;13.326;2023-03-12T02:29:36;3.80;;;1.70;;
29380;SDS011;16364;52.490;13.326;2023-03-12T02:32:02;7.10;;;1.70;;
29380;SDS011;16364;52.490;13.326;2023-03-12T02:34:28;1.73;;;1.23;;
29380;SDS011;16364;52.490;13.326;2023-03-12T02:36:54;3.77;;;1.97;;
29380;SDS011;16364;52.490;13.326;2023-03-12T02:39:19;1.67;;;1.40;;
29380;SDS011;16364;52.490;13.326;2023-03-12T02:41:47;1.60;;;1.50;;
29380;SDS011;16364;52.490;13.326;2023-03-12T02:44:19;2.77;;;1.60;;
29380;SDS011;16364;52.490;13.326;2023-03-12T02:46:46;5.80;;;1.50;;
29380;SDS011;16364;52.490;13.326;2023-03-12T02:49:11;1.67;;;1.47;;
29380;SDS011;16364;52.490;13.326;2023-03-12T02:51:37;2.57;;;1.63;;
29380;SDS011;16364;52.490;13.326;2023-03-12T02:54:04;2.77;;;1.80;;
29380;SDS011;16364;52.490;13.326;2023-03-12T02:56:29;1.67;;;1.40;;
29380;SDS011;16364;52.490;13.326;2023-03-12T02:58:56;2.23;;;1.60;;
29380;SDS011;16364;52.490;13.326;2023-03-12T03:01:21;2.60;;;1.40;;
29380;SDS011;16364;52.490;13.326;2023-03-12T03:03:47;3.67;;;1.43;;
29380;SDS011;16364;52.490;13.326;2023-03-12T03:06:12;4.33;;;1.43;;
29380;SDS011;16364;52.490;13.326;2023-03-12T03:08:38;4.43;;;1.70;;
29380;SDS011;16364;52.490;13.326;2023-03-12T03:11:04;3.67;;;1.80;;
29380;SDS011;16364;52.490;13.326;2023-03-12T03:13:30;4.17;;;1.50;;
29380;SDS011;16364;52.490;13.326;2023-03-12T03:15:55;2.40;;;2.13;;
29380;SDS011;16364;52.490;13.326;2023-03-12T03:18:22;3.50;;;1.53;;
29380;SDS011;16364;52.490;13.326;2023-03-12T03:20:58;2.93;;;1.70;;
29380;SDS011;16364;52.490;13.326;2023-03-12T03:23:23;2.17;;;1.80;;
29380;SDS011;16364;52.490;13.326;2023-03-12T03:25:49;5.63;;;1.83;;
29380;SDS011;16364;52.490;13.326;2023-03-12T03:28:16;3.03;;;2.00;;
29380;SDS011;16364;52.490;13.326;2023-03-12T03:30:42;2.60;;;1.43;;
29380;SDS011;16364;52.490;13.326;2023-03-12T03:33:07;5.83;;;2.00;;
29380;SDS011;16364;52.490;13.326;2023-03-12T03:35:33;2.10;;;1.70;;
29380;SDS011;16364;52.490;13.326;2023-03-12T03:38:01;8.53;;;2.00;;
29380;SDS011;16364;52.490;13.326;2023-03-12T03:40:27;2.83;;;1.47;;
29380;SDS011;16364;52.490;13.326;2023-03-12T03:42:53;1.60;;;1.50;;
29380;SDS011;16364;52.490;13.326;2023-03-12T03:45:19;3.23;;;2.00;;
29380;SDS011;16364;52.490;13.326;2023-03-12T03:47:44;2.07;;;1.80;;
29380;SDS011;16364;52.490;13.326;2023-03-12T03:50:10;5.00;;;1.63;;
29380;SDS011;16364;52.490;13.326;2023-03-12T03:52:35;2.33;;;1.50;;
29380;SDS011;16364;52.490;13.326;2023-03-12T03:55:00;3.57;;;1.70;;
29380;SDS011;16364;52.490;13.326;2023-03-12T03:57:26;4.53;;;1.70;;
29380;SDS011;16364;52.490;13.326;2023-03-12T03:59:54;1.73;;;1.53;;
29380;SDS011;16364;52.490;13.326;2023-03-12T04:02:20;3.03;;;1.90;;
29380;SDS011;16364;52.490;13.326;2023-03-12T04:04:45;7.53;;;2.10;;
29380;SDS011;16364;52.490;13.326;2023-03-12T04:07:11;7.70;;;2.10;;
29380;SDS011;16364;52.490;13.326;2023-03-12T04:09:36;3.47;;;1.83;;
29380;SDS011;16364;52.490;13.326;2023-03-12T04:12:01;6.50;;;2.27;;
29380;SDS011;16364;52.490;13.326;2023-03-12T04:14:26;9.23;;;2.63;;
29380;SDS011;16364;52.490;13.326;2023-03-12T04:16:52;3.20;;;2.37;;
29380;SDS011;16364;52.490;13.326;2023-03-12T04:19:17;2.23;;;2.03;;
29380;SDS011;16364;52.490;13.326;2023-03-12T04:21:42;10.50;;;2.60;;
29380;SDS011;16364;52.490;13.326;2023-03-12T04:24:08;7.10;;;2.70;;
29380;SDS011;16364;52.490;13.326;2023-03-12T04:26:36;3.37;;;2.73;;
29380;SDS011;16364;52.490;13.326;2023-03-12T04:29:01;2.50;;;2.27;;
29380;SDS011;16364;52.490;13.326;2023-03-12T04:31:26;3.97;;;3.03;;
29380;SDS011;16364;52.490;13.326;2023-03-12T04:33:51;4.20;;;2.47;;
29380;SDS011;16364;52.490;13.326;2023-03-12T04:36:17;4.10;;;2.60;;
29380;SDS011;16364;52.490;13.326;2023-03-12T04:38:42;3.77;;;2.30;;
29380;SDS011;16364;52.490;13.326;2023-03-12T04:41:09;4.17;;;2.40;;
29380;SDS011;16364;52.490;13.326;2023-03-12T04:43:34;5.40;;;3.00;;
29380;SDS011;16364;52.490;13.326;2023-03-12T04:46:00;3.30;;;2.70;;
29380;SDS011;16364;52.490;13.326;2023-03-12T04:48:26;8.83;;;2.60;;
29380;SDS011;16364;52.490;13.326;2023-03-12T04:50:51;6.47;;;3.50;;
29380;SDS011;16364;52.490;13.326;2023-03-12T04:53:17;5.60;;;2.90;;
29380;SDS011;16364;52.490;13.326;2023-03-12T04:55:43;7.40;;;3.27;;
29380;SDS011;16364;52.490;13.326;2023-03-12T04:58:08;3.20;;;2.90;;
29380;SDS011;16364;52.490;13.326;2023-03-12T05:00:34;5.93;;;2.97;;
29380;SDS011;16364;52.490;13.326;2023-03-12T05:02:59;4.07;;;2.97;;
29380;SDS011;16364;52.490;13.326;2023-03-12T05:05:26;3.27;;;2.97;;
29380;SDS011;16364;52.490;13.326;2023-03-12T05:07:51;5.83;;;3.10;;
29380;SDS011;16364;52.490;13.326;2023-03-12T05:10:16;4.80;;;3.10;;
29380;SDS011;16364;52.490;13.326;2023-03-12T05:12:42;5.30;;;2.97;;
29380;SDS011;16364;52.490;13.326;2023-03-12T05:15:07;2.60;;;2.40;;
29380;SDS011;16364;52.490;13.326;2023-03-12T05:17:33;3.80;;;2.20;;
29380;SDS011;16364;52.490;13.326;2023-03-12T05:19:58;7.60;;;2.60;;
29380;SDS011;16364;52.490;13.326;2023-03-12T05:22:23;4.17;;;2.73;;
29380;SDS011;16364;52.490;13.326;2023-03-12T05:24:48;4.90;;;3.23;;
29380;SDS011;16364;52.490;13.326;2023-03-12T05:27:15;2.60;;;2.23;;
29380;SDS011;16364;52.490;13.326;2023-03-12T05:29:40;3.73;;;3.00;;
29380;SDS011;16364;52.490;13.326;2023-03-12T05:32:06;5.90;;;3.43;;
29380;SDS011;16364;52.490;13.326;2023-03-12T05:34:31;12.07;;;4.60;;
29380;SDS011;16364;52.490;13.326;2023-03-12T05:36:57;6.27;;;2.67;;
29380;SDS011;16364;52.490;13.326;2023-03-12T05:39:22;2.90;;;2.47;;
29380;SDS011;16364;52.490;13.326;2023-03-12T05:41:48;3.70;;;2.70;;
29380;SDS011;16364;52.490;13.326;2023-03-12T05:44:20;4.07;;;2.13;;
29380;SDS011;16364;52.490;13.326;2023-03-12T05:46:46;2.53;;;2.33;;
29380;SDS011;16364;52.490;13.326;2023-03-12T05:49:11;2.47;;;2.20;;
29380;SDS011;16364;52.490;13.326;2023-03-12T05:51:36;2.37;;;2.17;;
29380;SDS011;16364;52.490;13.326;2023-03-12T05:54:02;4.70;;;2.17;;
29380;SDS011;16364;52.490;13.326;2023-03-12T05:56:27;3.70;;;1.80;;
29380;SDS011;16364;52.490;13.326;2023-03-12T05:58:53;4.70;;;2.10;;
29380;SDS011;16364;52.490;13.326;2023-03-12T06:01:24;2.70;;;2.07;;
29380;SDS011;16364;52.490;13.326;2023-03-12T06:03:49;8.60;;;2.30;;
29380;SDS011;16364;52.490;13.326;2023-03-12T06:06:15;3.93;;;2.27;;
29380;SDS011;16364;52.490;13.326;2023-03-12T06:08:41;4.50;;;3.47;;
29380;SDS011;16364;52.490;13.326;2023-03-12T06:11:07;3.93;;;2.10;;
29380;SDS011;16364;52.490;13.326;2023-03-12T06:13:32;4.67;;;2.50;;
29380;SDS011;16364;52.490;13.326;2023-03-12T06:16:01;2.90;;;2.20;;
29380;SDS011;16364;52.490;13.326;2023-03-12T06:18:28;2.53;;;2.33;;
29380;SDS011;16364;52.490;13.326;2023-03-12T06:20:53;3.50;;;2.10;;
29380;SDS011;16364;52.490;13.326;2023-03-12T06:23:18;6.07;;;2.40;;
29380;SDS011;16364;52.490;13.326;2023-03-12T06:25:45;3.10;;;2.00;;
29380;SDS011;16364;52.490;13.326;2023-03-12T06:28:12;4.13;;;2.80;;
29380;SDS011;16364;52.490;13.326;2023-03-12T06:30:37;9.20;;;3.37;;
29380;SDS011;16364;52.490;13.326;2023-03-12T06:33:02;3.50;;;2.73;;
29380;SDS011;16364;52.490;13.326;2023-03-12T06:35:28;6.13;;;4.47;;
29380;SDS011;16364;52.490;13.326;2023-03-12T06:37:54;5.03;;;2.60;;
29380;SDS011;16364;52.490;13.326;2023-03-12T06:40:19;5.67;;;2.50;;
29380;SDS011;16364;52.490;13.326;2023-03-12T06:42:44;3.17;;;1.87;;
29380;SDS011;16364;52.490;13.326;2023-03-12T06:45:10;2.60;;;2.40;;
29380;SDS011;16364;52.490;13.326;2023-03-12T06:47:35;2.30;;;2.10;;
29380;SDS011;16364;52.490;13.326;2023-03-12T06:50:01;5.63;;;2.40;;
29380;SDS011;16364;52.490;13.326;2023-03-12T06:52:26;5.07;;;2.23;;
29380;SDS011;16364;52.490;13.326;2023-03-12T06:54:51;2.50;;;2.30;;
29380;SDS011;16364;52.490;13.326;2023-03-12T06:57:16;2.00;;;1.80;;
29380;SDS011;16364;52.490;13.326;2023-03-12T06:59:47;8.27;;;2.37;;
29380;SDS011;16364;52.490;13.326;2023-03-12T07:02:12;4.17;;;1.73;;
29380;SDS011;16364;52.490;13.326;2023-03-12T07:04:39;6.50;;;2.50;;
29380;SDS011;16364;52.490;13.326;2023-03-12T07:07:04;2.20;;;2.00;;
29380;SDS011;16364;52.490;13.326;2023-03-12T07:09:30;2.83;;;2.30;;
29380;SDS011;16364;52.490;13.326;2023-03-12T07:11:55;2.93;;;2.73;;
29380;SDS011;16364;52.490;13.326;2023-03-12T07:14:21;3.03;;;2.30;;
29380;SDS011;16364;52.490;13.326;2023-03-12T07:16:47;6.70;;;2.90;;
29380;SDS011;16364;52.490;13.326;2023-03-12T07:19:12;4.70;;;2.20;;
29380;SDS011;16364;52.490;13.326;2023-03-12T07:21:37;8.57;;;2.17;;
29380;SDS011;16364;52.490;13.326;2023-03-12T07:24:04;4.50;;;2.10;;
29380;SDS011;16364;52.490;13.326;2023-03-12T07:26:32;3.33;;;2.00;;
29380;SDS011;16364;52.490;13.326;2023-03-12T07:28:57;4.70;;;2.37;;
29380;SDS011;16364;52.490;13.326;2023-03-12T07:31:23;3.00;;;2.00;;
29380;SDS011;16364;52.490;13.326;2023-03-12T07:33:48;2.00;;;1.70;;
29380;SDS011;16364;52.490;13.326;2023-03-12T07:36:14;12.53;;;2.10;;
29380;SDS011;16364;52.490;13.326;2023-03-12T07:38:39;4.13;;;2.43;;
29380;SDS011;16364;52.490;13.326;2023-03-12T07:41:05;9.27;;;2.70;;
29380;SDS011;16364;52.490;13.326;2023-03-12T07:43:31;6.73;;;2.30;;
29380;SDS011;16364;52.490;13.326;2023-03-12T07:45:56;6.47;;;1.93;;
29380;SDS011;16364;52.490;13.326;2023-03-12T07:48:21;3.77;;;2.13;;
29380;SDS011;16364;52.490;13.326;2023-03-12T07:50:46;2.80;;;1.80;;
29380;SDS011;16364;52.490;13.326;2023-03-12T07:53:12;3.33;;;2.30;;
29380;SDS011;16364;52.490;13.326;2023-03-12T07:55:37;7.93;;;2.10;;
29380;SDS011;16364;52.490;13.326;2023-03-12T07:58:02;3.20;;;2.23;;
29380;SDS011;16364;52.490;13.326;2023-03-12T08:00:28;3.00;;;2.00;;
29380;SDS011;16364;52.490;13.326;2023-03-12T08:02:55;3.30;;;2.40;;
29380;SDS011;16364;52.490;13.326;2023-03-12T08:05:20;3.23;;;2.27;;
29380;SDS011;16364;52.490;13.326;2023-03-12T08:07:48;4.63;;;2.50;;
29380;SDS011;16364;52.490;13.326;2023-03-12T08:10:14;7.43;;;2.77;;
29380;SDS011;16364;52.490;13.326;2023-03-12T08:12:39;6.50;;;2.50;;
29380;SDS011;16364;52.490;13.326;2023-03-12T08:15:05;3.20;;;2.00;;
29380;SDS011;16364;52.490;13.326;2023-03-12T08:17:30;3.10;;;2.37;;
29380;SDS011;16364;52.490;13.326;2023-03-12T08:19:55;4.10;;;2.33;;
29380;SDS011;16364;52.490;13.326;2023-03-12T08:22:21;5.80;;;2.30;;
29380;SDS011;16364;52.490;13.326;2023-03-12T08:24:47;4.17;;;2.43;;
29380;SDS011;16364;52.490;13.326;2023-03-12T08:27:14;2.00;;;1.80;;
29380;SDS011;16364;52.490;13.326;2023-03-12T08:29:39;2.60;;;2.00;;
29380;SDS011;16364;52.490;13.326;2023-03-12T08:32:05;4.57;;;2.23;;
29380;SDS011;16364;52.490;13.326;2023-03-12T08:34:30;2.80;;;2.30;;
29380;SDS011;16364;52.490;13.326;2023-03-12T08:36:55;12.57;;;2.70;;
29380;SDS011;16364;52.490;13.326;2023-03-12T08:39:20;3.13;;;2.00;;
29380;SDS011;16364;52.490;13.326;2023-03-12T08:41:46;4.90;;;2.30;;
29380;SDS011;16364;52.490;13.326;2023-03-12T08:44:11;2.50;;;1.90;;
29380;SDS011;16364;52.490;13.326;2023-03-12T08:46:37;4.23;;;1.70;;
29380;SDS011;16364;52.490;13.326;2023-03-12T08:49:02;9.10;;;2.43;;
29380;SDS011;16364;52.490;13.326;2023-03-12T08:51:30;10.10;;;2.03;;
29380;SDS011;16364;52.490;13.326;2023-03-12T08:53:55;3.67;;;2.10;;
29380;SDS011;16364;52.490;13.326;2023-03-12T08:56:23;2.57;;;1.50;;
29380;SDS011;16364;52.490;13.326;2023-03-12T08:58:49;2.30;;;1.77;;
29380;SDS011;16364;52.490;13.326;2023-03-12T09:01:14;4.73;;;1.70;;
29380;SDS011;16364;52.490;13.326;2023-03-12T09:03:39;7.20;;;2.03;;
29380;SDS011;16364;52.490;13.326;2023-03-12T09:06:08;3.43;;;2.00;;
29380;SDS011;16364;52.490;13.326;2023-03-12T09:08:42;4.37;;;2.23;;
29380;SDS011;16364;52.490;13.326;2023-03-12T09:11:09;3.50;;;1.53;;
29380;SDS011;16364;52.490;13.326;2023-03-12T09:13:36;5.37;;;1.80;;
29380;SDS011;16364;52.490;13.326;2023-03-12T09:16:02;5.60;;;2.07;;
29380;SDS011;16364;52.490;13.326;2023-03-12T09:18:30;1.73;;;1.30;;
29380;SDS011;16364;52.490;13.326;2023-03-12T09:20:56;2.83;;;1.30;;
29380;SDS011;16364;52.490;13.326;2023-03-12T09:23:21;2.03;;;1.83;;
29380;SDS011;16364;52.490;13.326;2023-03-12T09:25:47;3.50;;;1.83;;
29380;SDS011;16364;52.490;13.326;2023-03-12T09:28:13;3.23;;;1.70;;
29380;SDS011;16364;52.490;13.326;2023-03-12T09:30:39;1.60;;;1.50;;
29380;SDS011;16364;52.490;13.326;2023-03-12T09:33:04;3.10;;;1.57;;
29380;SDS011;16364;52.490;13.326;2023-03-12T09:35:31;4.47;;;1.87;;
29380;SDS011;16364;52.490;13.326;2023-03-12T09:37:56;1.60;;;1.30;;
29380;SDS011;16364;52.490;13.326;2023-03-12T09:40:23;1.70;;;1.00;;
29380;SDS011;16364;52.490;13.326;2023-03-12T09:42:57;1.80;;;1.00;;
29380;SDS011;16364;52.490;13.326;2023-03-12T09:45:27;2.50;;;1.30;;
29380;SDS011;16364;52.490;13.326;2023-03-12T09:47:56;3.13;;;1.20;;
29380;SDS011;16364;52.490;13.326;2023-03-12T09:55:22;2.27;;;1.10;;
29380;SDS011;16364;52.490;13.326;2023-03-12T09:57:48;2.77;;;1.33;;
29380;SDS011;16364;52.490;13.326;2023-03-12T10:00:26;1.50;;;1.30;;
29380;SDS011;16364;52.490;13.326;2023-03-12T10:02:56;1.83;;;1.37;;
29380;SDS011;16364;52.490;13.326;2023-03-12T10:10:43;3.57;;;1.67;;
29380;SDS011;16364;52.490;13.326;2023-03-12T10:25:54;4.03;;;1.40;;
29380;SDS011;16364;52.490;13.326;2023-03-12T10:33:52;1.93;;;1.20;;
29380;SDS011;16364;52.490;13.326;2023-03-12T10:36:19;4.47;;;1.30;;
29380;SDS011;16364;52.490;13.326;2023-03-12T10:38:46;2.47;;;2.27;;
29380;SDS011;16364;52.490;13.326;2023-03-12T10:41:14;1.70;;;1.60;;
29380;SDS011;16364;52.490;13.326;2023-03-12T10:43:40;1.90;;;1.50;;
29380;SDS011;16364;52.490;13.326;2023-03-12T10:46:22;2.27;;;2.07;;
29380;SDS011;16364;52.490;13.326;2023-03-12T10:49:13;1.37;;;1.27;;
29380;SDS011;16364;52.490;13.326;2023-03-12T10:51:53;1.90;;;1.30;;
29380;SDS011;16364;52.490;13.326;2023-03-12T10:54:27;4.13;;;1.30;;
29380;SDS011;16364;52.490;13.326;2023-03-12T10:56:53;2.67;;;1.10;;
29380;SDS011;16364;52.490;13.326;2023-03-12T10:59:22;2.10;;;1.37;;
29380;SDS011;16364;52.490;13.326;2023-03-12T11:01:50;1.83;;;1.20;;
29380;SDS011;16364;52.490;13.326;2023-03-12T11:04:24;2.23;;;1.27;;
29380;SDS011;16364;52.490;13.326;2023-03-12T11:09:26;4.00;;;1.60;;
29380;SDS011;16364;52.490;13.326;2023-03-12T11:11:52;1.43;;;1.33;;
29380;SDS011;16364;52.490;13.326;2023-03-12T11:16:43;3.50;;;1.40;;
29380;SDS011;16364;52.490;13.326;2023-03-12T11:19:11;1.50;;;1.40;;
29380;SDS011;16364;52.490;13.326;2023-03-12T11:21:38;3.20;;;1.70;;
29380;SDS011;16364;52.490;13.326;2023-03-12T11:24:08;4.40;;;1.87;;
29380;SDS011;16364;52.490;13.326;2023-03-12T11:26:50;6.97;;;1.90;;
29380;SDS011;16364;52.490;13.326;2023-03-12T11:29:23;3.47;;;1.70;;
29380;SDS011;16364;52.490;13.326;2023-03-12T11:31:56;2.90;;;1.83;;
29380;SDS011;16364;52.490;13.326;2023-03-12T11:34:25;3.03;;;2.83;;
29380;SDS011;16364;52.490;13.326;2023-03-12T11:37:07;4.63;;;2.37;;
29380;SDS011;16364;52.490;13.326;2023-03-12T11:39:42;2.20;;;1.60;;
29380;SDS011;16364;52.490;13.326;2023-03-12T11:42:15;1.67;;;1.57;;
29380;SDS011;16364;52.490;13.326;2023-03-12T11:44:56;2.13;;;1.77;;
29380;SDS011;16364;52.490;13.326;2023-03-12T11:47:37;1.70;;;1.60;;
29380;SDS011;16364;52.490;13.326;2023-03-12T11:55:03;2.70;;;1.90;;
29380;SDS011;16364;52.490;13.326;2023-03-12T11:57:37;2.87;;;1.73;;
29380;SDS011;16364;52.490;13.326;2023-03-12T12:05:24;2.40;;;1.60;;
29380;SDS011;16364;52.490;13.326;2023-03-12T12:11:12;2.53;;;1.70;;
29380;SDS011;16364;52.490;13.326;2023-03-12T12:13:14;3.20;;;1.87;;
29380;SDS011;16364;52.490;13.326;2023-03-12T12:15:45;2.90;;;2.00;;
29380;SDS011;16364;52.490;13.326;2023-03-12T12:26:08;3.07;;;1.53;;
29380;SDS011;16364;52.490;13.326;2023-03-12T12:36:11;1.77;;;1.67;;
29380;SDS011;16364;52.490;13.326;2023-03-12T12:38:39;1.70;;;1.60;;
29380;SDS011;16364;52.490;13.326;2023-03-12T12:43:38;2.00;;;1.77;;
29380;SDS011;16364;52.490;13.326;2023-03-12T12:49:09;2.43;;;2.00;;
29380;SDS011;16364;52.490;13.326;2023-03-12T12:51:25;2.43;;;1.43;;
29380;SDS011;16364;52.490;13.326;2023-03-12T12:53:55;2.67;;;1.40;;
29380;SDS011;16364;52.490;13.326;2023-03-12T12:56:32;3.37;;;1.60;;
29380;SDS011;16364;52.490;13.326;2023-03-12T13:01:33;1.73;;;1.57;;
29380;SDS011;16364;52.490;13.326;2023-03-12T13:04:08;1.67;;;1.57;;
29380;SDS011;16364;52.490;13.326;2023-03-12T13:09:20;1.97;;;1.40;;
29380;SDS011;16364;52.490;13.326;2023-03-12T13:11:46;2.27;;;1.70;;
29380;SDS011;16364;52.490;13.326;2023-03-12T13:14:14;1.67;;;1.57;;
29380;SDS011;16364;52.490;13.326;2023-03-12T13:16:43;5.80;;;1.83;;
29380;SDS011;16364;52.490;13.326;2023-03-12T13:21:44;5.87;;;2.00;;
29380;SDS011;16364;52.490;13.326;2023-03-12T13:29:34;3.60;;;1.90;;
29380;SDS011;16364;52.490;13.326;2023-03-12T13:32:01;1.50;;;1.40;;
29380;SDS011;16364;52.490;13.326;2023-03-12T13:36:53;2.23;;;1.50;;
29380;SDS011;16364;52.490;13.326;2023-03-12T13:39:28;2.37;;;1.40;;
29380;SDS011;16364;52.490;13.326;2023-03-12T13:41:54;1.87;;;1.50;;
29380;SDS011;16364;52.490;13.326;2023-03-12T13:47:25;2.13;;;1.83;;
29380;SDS011;16364;52.490;13.326;2023-03-12T13:52:19;2.43;;;1.87;;
29380;SDS011;16364;52.490;13.326;2023-03-12T13:54:46;4.63;;;1.30;;
29380;SDS011;16364;52.490;13.326;2023-03-12T13:57:29;4.20;;;1.30;;
29380;SDS011;16364;52.490;13.326;2023-03-12T13:59:56;7.43;;;1.63;;
29380;SDS011;16364;52.490;13.326;2023-03-12T14:02:32;2.10;;;1.00;;
29380;SDS011;16364;52.490;13.326;2023-03-12T14:05:08;1.50;;;1.30;;
29380;SDS011;16364;52.490;13.326;2023-03-12T14:12:37;1.90;;;1.10;;
29380;SDS011;16364;52.490;13.326;2023-03-12T14:15:12;1.10;;;1.00;;
29380;SDS011;16364;52.490;13.326;2023-03-12T14:17:41;1.50;;;1.27;;
29380;SDS011;16364;52.490;13.326;2023-03-12T14:20:18;3.13;;;1.20;;
29380;SDS011;16364;52.490;13.326;2023-03-12T14:22:44;3.20;;;1.10;;
29380;SDS011;16364;52.490;13.326;2023-03-12T14:25:15;2.30;;;1.23;;
29380;SDS011;16364;52.490;13.326;2023-03-12T14:27:43;1.30;;;1.20;;
29380;SDS011;16364;52.490;13.326;2023-03-12T14:30:10;1.50;;;1.10;;
29380;SDS011;16364;52.490;13.326;2023-03-12T14:32:36;1.80;;;1.23;;
29380;SDS011;16364;52.490;13.326;2023-03-12T14:38:28;2.10;;;1.87;;
29380;SDS011;16364;52.490;13.326;2023-03-12T14:40:56;2.40;;;1.80;;
29380;SDS011;16364;52.490;13.326;2023-03-12T14:43:25;4.30;;;2.67;;
29380;SDS011;16364;52.490;13.326;2023-03-12T14:48:42;2.40;;;1.37;;
29380;SDS011;16364;52.490;13.326;2023-03-12T14:51:21;2.37;;;1.70;;
29380;SDS011;16364;52.490;13.326;2023-03-12T14:53:48;5.47;;;2.90;;
29380;SDS011;16364;52.490;13.326;2023-03-12T14:56:26;17.63;;;6.30;;
29380;SDS011;16364;52.490;13.326;2023-03-12T14:58:54;6.33;;;5.33;;
29380;SDS011;16364;52.490;13.326;2023-03-12T15:01:22;2.63;;;2.40;;
29380;SDS011;16364;52.490;13.326;2023-03-12T15:03:49;1.53;;;1.40;;
29380;SDS011;16364;52.490;13.326;2023-03-12T15:06:32;2.67;;;1.67;;
29380;SDS011;16364;52.490;13.326;2023-03-12T15:08:58;2.60;;;2.13;;
29380;SDS011;16364;52.490;13.326;2023-03-12T15:11:26;2.37;;;2.00;;
29380;SDS011;16364;52.490;13.326;2023-03-12T15:13:52;3.23;;;2.13;;
29380;SDS011;16364;52.490;13.326;2023-03-12T15:16:19;2.57;;;1.30;;
29380;SDS011;16364;52.490;13.326;2023-03-12T15:18:45;2.60;;;1.40;;
29380;SDS011;16364;52.490;13.326;2023-03-12T15:21:13;2.13;;;1.40;;
29380;SDS011;16364;52.490;13.326;2023-03-12T15:23:39;7.60;;;1.50;;
29380;SDS011;16364;52.490;13.326;2023-03-12T15:26:09;1.63;;;1.53;;
29380;SDS011;16364;52.490;13.326;2023-03-12T15:28:35;3.57;;;1.70;;
29380;SDS011;16364;52.490;13.326;2023-03-12T15:31:08;2.50;;;1.60;;
29380;SDS011;16364;52.490;13.326;2023-03-12T15:33:34;3.60;;;1.40;;
29380;SDS011;16364;52.490;13.326;2023-03-12T15:36:46;3.30;;;1.40;;
29380;SDS011;16364;52.490;13.326;2023-03-12T15:38:46;2.97;;;1.50;;
29380;SDS011;16364;52.490;13.326;2023-03-12T15:44:16;3.57;;;2.33;;
29380;SDS011;16364;52.490;13.326;2023-03-12T15:47:05;2.47;;;1.50;;
29380;SDS011;16364;52.490;13.326;2023-03-12T15:49:33;2.23;;;1.90;;
29380;SDS011;16364;52.490;13.326;2023-03-12T15:52:01;4.13;;;3.60;;
29380;SDS011;16364;52.490;13.326;2023-03-12T15:54:28;3.93;;;2.80;;
29380;SDS011;16364;52.490;13.326;2023-03-12T15:57:10;4.50;;;2.50;;
29380;SDS011;16364;52.490;13.326;2023-03-12T15:59:35;3.90;;;2.30;;
29380;SDS011;16364;52.490;13.326;2023-03-12T16:02:00;2.10;;;1.90;;
29380;SDS011;16364;52.490;13.326;2023-03-12T16:04:27;1.90;;;1.70;;
29380;SDS011;16364;52.490;13.326;2023-03-12T16:06:52;2.07;;;1.97;;
29380;SDS011;16364;52.490;13.326;2023-03-12T16:09:18;3.77;;;3.17;;
29380;SDS011;16364;52.490;13.326;2023-03-12T16:11:45;2.47;;;2.27;;
29380;SDS011;16364;52.490;13.326;2023-03-12T16:16:39;3.70;;;2.10;;
29380;SDS011;16364;52.490;13.326;2023-03-12T16:19:11;3.07;;;2.87;;
29380;SDS011;16364;52.490;13.326;2023-03-12T16:21:37;3.10;;;1.87;;
29380;SDS011;16364;52.490;13.326;2023-03-12T16:24:02;2.50;;;2.30;;